createdAt,value
2022-08-10T00:00:39.276Z,58.62
2022-08-10T00:01:39.335Z,54.86
2022-08-10T00:02:39.267Z,54.03
2022-08-10T00:03:39.261Z,50.76
2022-08-10T00:04:39.254Z,56.59
2022-08-10T00:05:43.383Z,56.04
2022-08-10T00:06:40.240Z,49.87
2022-08-10T00:07:39.220Z,47.95
2022-08-10T00:08:39.216Z,56.58
2022-08-10T00:09:50.694Z,50.67
2022-08-10T00:10:40.197Z,49.55
2022-08-10T00:11:39.194Z,49.97
2022-08-10T00:12:53.670Z,61.62
2022-08-10T00:13:40.178Z,49.70
2022-08-10T00:14:39.176Z,49.76
2022-08-10T00:15:52.023Z,51.53
2022-08-10T00:16:40.152Z,52.15
2022-08-10T00:17:39.140Z,51.55
2022-08-10T00:18:39.143Z,50.38
2022-08-10T00:20:03.162Z,48.45
2022-08-10T00:20:40.113Z,48.30
2022-08-10T00:21:39.114Z,56.74
2022-08-10T00:22:52.826Z,47.96
2022-08-10T00:23:40.100Z,49.08
2022-08-10T00:24:43.044Z,52.74
2022-08-10T00:25:40.079Z,48.84
2022-08-10T00:27:52.495Z,44.97
2022-08-10T00:27:52.570Z,47.04
2022-08-10T00:28:40.054Z,51.26
2022-08-10T00:29:39.048Z,57.85
2022-08-10T00:30:39.041Z,53.38
2022-08-10T00:33:39.172Z,50.31
2022-08-10T00:34:39.164Z,48.21
2022-08-10T00:35:39.153Z,52.81
2022-08-10T00:36:39.143Z,47.65
2022-08-10T00:37:39.139Z,46.81
2022-08-10T00:38:40.216Z,55.16
2022-08-10T00:39:40.258Z,49.47
2022-08-10T00:40:40.207Z,52.59
2022-08-10T00:41:40.193Z,55.54
2022-08-10T00:42:40.188Z,49.42
2022-08-10T00:43:40.181Z,53.51
2022-08-10T00:44:40.186Z,45.55
2022-08-10T00:45:40.177Z,53.29
2022-08-10T00:46:40.154Z,54.30
2022-08-10T00:47:40.146Z,50.92
2022-08-10T00:48:40.141Z,54.91
2022-08-10T00:49:40.133Z,46.94
2022-08-10T00:50:40.123Z,48.98
2022-08-10T00:51:43.114Z,45.64
2022-08-10T00:52:41.107Z,54.39
2022-08-10T00:53:40.093Z,47.95
2022-08-10T00:54:40.089Z,56.93
2022-08-10T00:57:12.372Z,55.38
2022-08-10T00:57:17.038Z,50.55
2022-08-10T00:57:41.061Z,54.22
2022-08-10T00:58:40.054Z,51.53
2022-08-10T00:59:59.138Z,55.38
2022-08-10T01:00:41.052Z,61.25
2022-08-10T01:02:09.840Z,54.40
2022-08-10T01:02:41.130Z,53.33
2022-08-10T01:04:36.778Z,54.59
2022-08-10T01:04:59.914Z,49.76
2022-08-10T01:05:51.227Z,52.41
2022-08-10T01:06:40.991Z,57.38
2022-08-10T01:07:39.987Z,59.51
2022-08-10T01:08:39.980Z,52.74
2022-08-10T01:09:40.559Z,59.87
2022-08-10T01:10:40.167Z,52.14
2022-08-10T01:12:40.981Z,50.10
2022-08-10T01:12:41.724Z,59.01
2022-08-10T01:13:40.939Z,56.78
2022-08-10T01:14:39.929Z,53.89
2022-08-10T01:15:40.138Z,56.74
2022-08-10T01:16:39.920Z,50.11
2022-08-10T01:17:50.207Z,47.75
2022-08-10T01:18:42.001Z,50.80
2022-08-10T01:19:39.887Z,52.35
2022-08-10T01:20:39.879Z,54.21
2022-08-10T01:21:39.895Z,53.84
2022-08-10T01:22:40.878Z,53.56
2022-08-10T01:23:39.857Z,60.42
2022-08-10T01:24:39.856Z,55.82
2022-08-10T01:26:10.827Z,51.57
2022-08-10T01:26:41.148Z,49.97
2022-08-10T01:27:39.836Z,54.46
2022-08-10T01:28:39.822Z,51.15
2022-08-10T01:29:39.812Z,58.49
2022-08-10T01:30:39.809Z,50.38
2022-08-10T01:31:39.833Z,46.69
2022-08-10T01:32:39.788Z,53.60
2022-08-10T01:33:58.393Z,52.33
2022-08-10T01:34:40.768Z,49.09
2022-08-10T01:35:39.762Z,46.55
2022-08-10T01:36:39.753Z,48.18
2022-08-10T01:37:39.757Z,47.07
2022-08-10T01:38:40.569Z,51.27
2022-08-10T01:39:39.778Z,54.13
2022-08-10T01:40:39.722Z,51.52
2022-08-10T01:41:45.579Z,51.93
2022-08-10T01:42:40.711Z,47.85
2022-08-10T01:43:39.699Z,49.05
2022-08-10T01:44:39.680Z,50.65
2022-08-10T01:45:45.149Z,52.98
2022-08-10T01:46:40.662Z,52.72
2022-08-10T01:47:39.678Z,52.21
2022-08-10T01:48:39.654Z,51.64
2022-08-10T01:49:39.657Z,52.07
2022-08-10T01:50:53.213Z,54.80
2022-08-10T01:51:40.631Z,53.46
2022-08-10T01:52:39.626Z,44.96
2022-08-10T01:53:41.022Z,47.59
2022-08-10T01:54:39.623Z,53.92
2022-08-10T01:55:39.603Z,54.86
2022-08-10T01:56:39.609Z,55.97
2022-08-10T01:57:39.582Z,46.26
2022-08-10T01:58:39.583Z,54.79
2022-08-10T01:59:39.575Z,46.59
2022-08-10T02:00:39.562Z,50.95
2022-08-10T02:01:39.587Z,60.94
2022-08-10T02:02:39.542Z,48.56
2022-08-10T02:04:03.479Z,47.20
2022-08-10T02:04:40.533Z,47.43
2022-08-10T02:05:39.522Z,46.99
2022-08-10T02:06:40.523Z,56.19
2022-08-10T02:07:39.509Z,48.88
2022-08-10T02:08:39.504Z,47.46
2022-08-10T02:09:39.495Z,51.48
2022-08-10T02:10:39.483Z,47.70
2022-08-10T02:12:06.254Z,46.73
2022-08-10T02:12:40.464Z,55.96
2022-08-10T02:13:39.459Z,58.46
2022-08-10T02:14:39.462Z,58.10
2022-08-10T02:15:39.440Z,56.47
2022-08-10T02:16:40.450Z,53.62
2022-08-10T02:17:57.712Z,53.40
2022-08-10T02:18:40.421Z,54.76
2022-08-10T02:19:39.414Z,51.02
2022-08-10T02:20:39.413Z,59.37
2022-08-10T02:21:39.406Z,52.47
2022-08-10T02:22:40.393Z,51.64
2022-08-10T02:23:39.379Z,48.22
2022-08-10T02:24:39.377Z,55.21
2022-08-10T02:25:41.774Z,51.60
2022-08-10T02:26:39.353Z,57.56
2022-08-10T02:27:39.347Z,57.10
2022-08-10T02:28:39.342Z,57.13
2022-08-10T02:29:42.362Z,49.66
2022-08-10T02:30:39.330Z,56.37
2022-08-10T02:31:39.341Z,50.27
2022-08-10T02:32:39.614Z,54.13
2022-08-10T02:33:39.300Z,54.73
2022-08-10T02:34:40.292Z,58.87
2022-08-10T02:35:55.146Z,49.58
2022-08-10T02:36:40.270Z,50.90
2022-08-10T02:37:39.277Z,57.60
2022-08-10T02:38:59.118Z,58.90
2022-08-10T02:39:40.319Z,51.76
2022-08-10T02:45:02.154Z,57.23
2022-08-10T02:45:02.455Z,52.36
2022-08-10T02:45:17.813Z,60.30
2022-08-10T02:45:24.535Z,60.22
2022-08-10T02:45:29.225Z,54.34
2022-08-10T02:45:41.202Z,55.39
2022-08-10T02:46:39.192Z,56.61
2022-08-10T02:47:46.615Z,54.71
2022-08-10T02:48:40.197Z,63.95
2022-08-10T02:49:39.174Z,57.00
2022-08-10T02:50:39.169Z,52.88
2022-08-10T02:52:06.206Z,52.62
2022-08-10T02:52:40.158Z,52.30
2022-08-10T02:53:51.734Z,59.57
2022-08-10T02:54:40.152Z,57.77
2022-08-10T02:55:39.136Z,59.46
2022-08-10T02:56:39.132Z,57.17
2022-08-10T02:58:16.833Z,55.60
2022-08-10T02:58:40.108Z,57.89
2022-08-10T02:59:39.970Z,56.34
2022-08-10T03:00:39.144Z,61.02
2022-08-10T03:01:39.176Z,58.71
2022-08-10T03:02:39.079Z,55.02
2022-08-10T03:03:39.067Z,57.83
2022-08-10T03:04:55.442Z,60.00
2022-08-10T03:05:40.054Z,56.84
2022-08-10T03:06:39.066Z,53.03
2022-08-10T03:07:43.360Z,55.33
2022-08-10T03:08:40.031Z,54.94
2022-08-10T03:09:39.035Z,61.94
2022-08-10T03:10:39.759Z,60.08
2022-08-10T03:12:37.805Z,62.20
2022-08-10T03:12:40.003Z,58.71
2022-08-10T03:13:38.987Z,59.12
2022-08-10T03:14:38.985Z,58.08
2022-08-10T03:15:38.977Z,57.85
2022-08-10T03:16:38.978Z,56.41
2022-08-10T03:17:38.976Z,54.86
2022-08-10T03:18:38.959Z,58.32
2022-08-10T03:20:35.312Z,59.67
2022-08-10T03:20:40.352Z,57.77
2022-08-10T03:21:39.928Z,57.67
2022-08-10T03:22:38.921Z,64.77
2022-08-10T03:23:38.914Z,56.32
2022-08-10T03:24:38.903Z,58.71
2022-08-10T03:25:38.904Z,58.07
2022-08-10T03:26:38.887Z,55.26
2022-08-10T03:27:38.881Z,56.12
2022-08-10T03:28:38.880Z,58.40
2022-08-10T03:30:23.405Z,61.35
2022-08-10T03:30:39.885Z,58.24
2022-08-10T03:31:40.313Z,59.09
2022-08-10T03:32:38.843Z,58.81
2022-08-10T03:33:38.841Z,61.32
2022-08-10T03:34:38.825Z,60.95
2022-08-10T03:35:38.830Z,61.58
2022-08-10T03:36:40.427Z,63.46
2022-08-10T03:37:39.804Z,57.67
2022-08-10T03:38:38.799Z,59.70
2022-08-10T03:39:38.859Z,63.74
2022-08-10T03:40:45.643Z,61.56
2022-08-10T03:41:39.803Z,63.94
2022-08-10T03:42:38.759Z,59.25
2022-08-10T03:43:38.767Z,60.79
2022-08-10T03:44:38.742Z,60.46
2022-08-10T03:45:55.152Z,60.72
2022-08-10T03:46:39.733Z,61.98
2022-08-10T03:47:38.725Z,61.53
2022-08-10T03:48:49.023Z,59.67
2022-08-10T03:49:39.708Z,59.75
2022-08-10T03:50:51.520Z,63.02
2022-08-10T03:51:39.694Z,62.13
2022-08-10T03:52:38.695Z,60.90
2022-08-10T03:54:04.941Z,61.36
2022-08-10T03:54:39.669Z,62.10
2022-08-10T03:56:30.017Z,59.01
2022-08-10T03:56:40.657Z,57.68
2022-08-10T03:57:49.263Z,60.58
2022-08-10T03:58:39.628Z,63.08
2022-08-10T03:59:38.628Z,61.69
2022-08-10T04:00:38.648Z,62.88
2022-08-10T04:02:44.210Z,60.46
2022-08-10T04:02:46.314Z,61.07
2022-08-10T04:03:39.601Z,63.83
2022-08-10T04:04:38.588Z,61.06
2022-08-10T04:05:39.146Z,62.22
2022-08-10T04:06:38.591Z,63.21
2022-08-10T04:07:38.577Z,64.74
2022-08-10T04:08:38.564Z,61.64
2022-08-10T04:09:55.588Z,59.39
2022-08-10T04:10:39.553Z,62.81
2022-08-10T04:11:40.555Z,62.00
2022-08-10T04:12:38.524Z,59.24
2022-08-10T04:13:38.523Z,60.03
2022-08-10T04:14:50.683Z,58.50
2022-08-10T04:15:39.501Z,62.44
2022-08-10T04:16:38.522Z,62.30
2022-08-10T04:18:04.446Z,62.02
2022-08-10T04:18:39.489Z,63.89
2022-08-10T04:19:38.477Z,62.36
2022-08-10T04:20:38.468Z,62.23
2022-08-10T04:21:39.681Z,64.70
2022-08-10T04:22:38.454Z,58.17
2022-08-10T04:23:38.441Z,62.44
2022-08-10T04:24:39.115Z,62.75
2022-08-10T04:25:38.439Z,63.51
2022-08-10T04:26:38.427Z,64.13
2022-08-10T04:27:38.422Z,61.54
2022-08-10T04:28:38.439Z,61.49
2022-08-10T04:29:38.409Z,62.44
2022-08-10T04:30:38.395Z,64.59
2022-08-10T04:31:38.381Z,64.55
2022-08-10T04:32:38.378Z,63.97
2022-08-10T04:33:38.376Z,63.33
2022-08-10T04:34:38.362Z,64.85
2022-08-10T04:35:38.360Z,66.24
2022-08-10T04:36:38.358Z,62.55
2022-08-10T04:37:47.132Z,62.10
2022-08-10T04:38:39.336Z,63.57
2022-08-10T04:39:38.347Z,61.48
2022-08-10T04:40:38.325Z,61.71
2022-08-10T04:41:38.314Z,63.76
2022-08-10T04:42:39.295Z,62.68
2022-08-10T04:43:38.301Z,61.27
2022-08-10T04:44:38.283Z,62.70
2022-08-10T04:45:49.357Z,64.45
2022-08-10T04:46:56.129Z,61.31
2022-08-10T04:47:58.054Z,64.87
2022-08-10T04:48:42.716Z,63.99
2022-08-10T04:49:54.510Z,62.65
2022-08-10T04:50:39.246Z,62.92
2022-08-10T04:51:38.238Z,72.26
2022-08-10T04:52:38.349Z,66.82
2022-08-10T04:54:03.957Z,66.13
2022-08-10T04:54:39.205Z,64.29
2022-08-10T04:55:38.224Z,65.06
2022-08-10T04:56:38.239Z,68.46
2022-08-10T04:57:38.192Z,64.43
2022-08-10T04:58:38.175Z,62.18
2022-08-10T04:59:38.174Z,60.48
2022-08-10T05:00:38.265Z,65.91
2022-08-10T05:02:22.568Z,63.40
2022-08-10T05:02:39.183Z,65.16
2022-08-10T05:04:36.776Z,63.10
2022-08-10T05:04:39.495Z,62.27
2022-08-10T05:05:39.113Z,61.41
2022-08-10T05:06:38.113Z,62.51
2022-08-10T05:07:53.795Z,60.28
2022-08-10T05:08:39.091Z,62.58
2022-08-10T05:10:02.276Z,63.26
2022-08-10T05:10:39.635Z,64.89
2022-08-10T05:11:38.063Z,63.70
2022-08-10T05:12:39.044Z,61.71
2022-08-10T05:13:38.049Z,61.34
2022-08-10T05:14:38.038Z,66.82
2022-08-10T05:15:38.032Z,64.79
2022-08-10T05:16:38.025Z,63.48
2022-08-10T05:17:38.025Z,63.23
2022-08-10T05:18:38.018Z,66.27
2022-08-10T05:20:04.007Z,71.68
2022-08-10T05:20:39.001Z,67.35
2022-08-10T05:22:03.669Z,66.91
2022-08-10T05:22:39.368Z,64.87
2022-08-10T05:23:37.976Z,65.35
2022-08-10T05:24:37.966Z,64.47
2022-08-10T05:25:38.305Z,64.20
2022-08-10T05:26:42.288Z,64.87
2022-08-10T05:27:40.638Z,65.82
2022-08-10T05:28:37.937Z,64.21
2022-08-10T05:29:38.306Z,63.71
2022-08-10T05:32:25.603Z,64.56
2022-08-10T05:33:26.193Z,64.74
2022-08-10T05:34:25.589Z,62.64
2022-08-10T05:35:25.585Z,63.93
2022-08-10T05:36:25.574Z,66.19
2022-08-10T05:38:10.158Z,65.01
2022-08-10T05:38:27.858Z,67.37
2022-08-10T05:39:59.762Z,65.86
2022-08-10T05:40:26.631Z,64.42
2022-08-10T05:41:26.627Z,64.03
2022-08-10T05:42:27.005Z,65.83
2022-08-10T05:43:26.611Z,66.66
2022-08-10T05:44:26.607Z,64.26
2022-08-10T05:45:26.594Z,63.37
2022-08-10T05:46:26.591Z,62.41
2022-08-10T05:47:26.566Z,62.35
2022-08-10T05:48:55.910Z,62.16
2022-08-10T05:49:27.573Z,65.58
2022-08-10T05:50:26.556Z,64.02
2022-08-10T05:51:26.549Z,62.20
2022-08-10T05:52:26.562Z,60.41
2022-08-10T05:54:03.257Z,63.77
2022-08-10T05:54:27.517Z,63.29
2022-08-10T05:55:26.510Z,69.48
2022-08-10T05:56:26.506Z,66.49
2022-08-10T05:57:27.491Z,61.70
2022-08-10T05:58:26.498Z,62.06
2022-08-10T06:00:35.746Z,62.37
2022-08-10T06:00:37.544Z,64.73
2022-08-10T06:01:27.480Z,62.71
2022-08-10T06:02:34.164Z,67.98
2022-08-10T06:03:27.476Z,64.75
2022-08-10T06:04:26.459Z,60.20
2022-08-10T06:05:26.447Z,63.74
2022-08-10T06:06:26.430Z,66.15
2022-08-10T06:07:26.441Z,61.34
2022-08-10T06:08:26.814Z,61.88
2022-08-10T06:09:26.401Z,62.56
2022-08-10T06:10:32.346Z,59.79
2022-08-10T06:12:23.574Z,61.95
2022-08-10T06:12:29.794Z,63.18
2022-08-10T06:13:30.332Z,61.49
2022-08-10T06:14:28.323Z,60.85
2022-08-10T06:15:50.536Z,62.42
2022-08-10T06:16:27.346Z,60.76
2022-08-10T06:17:26.334Z,63.96
2022-08-10T06:18:26.325Z,63.99
2022-08-10T06:19:26.337Z,63.69
2022-08-10T06:20:26.310Z,62.97
2022-08-10T06:21:26.328Z,65.76
2022-08-10T06:22:26.373Z,64.73
2022-08-10T06:23:26.304Z,63.63
2022-08-10T06:24:30.778Z,64.76
2022-08-10T06:26:10.065Z,62.10
2022-08-10T06:26:28.274Z,62.20
2022-08-10T06:27:34.741Z,64.45
2022-08-10T06:28:27.262Z,62.38
2022-08-10T06:29:26.237Z,63.55
2022-08-10T06:30:26.252Z,64.72
2022-08-10T06:31:26.230Z,62.93
2022-08-10T06:32:26.217Z,61.88
2022-08-10T06:33:26.227Z,62.59
2022-08-10T06:34:26.199Z,60.93
2022-08-10T06:35:26.190Z,61.94
2022-08-10T06:36:26.183Z,65.24
2022-08-10T06:37:27.168Z,64.68
2022-08-10T06:38:26.166Z,61.49
2022-08-10T06:39:34.876Z,60.71
2022-08-10T06:40:28.201Z,62.32
2022-08-10T06:41:58.067Z,67.75
2022-08-10T06:42:27.129Z,65.71
2022-08-10T06:43:26.124Z,64.21
2022-08-10T06:44:26.128Z,65.08
2022-08-10T06:45:26.106Z,69.70
2022-08-10T06:46:26.103Z,66.42
2022-08-10T06:47:26.103Z,64.25
2022-08-10T06:48:26.084Z,65.91
2022-08-10T06:49:26.074Z,64.39
2022-08-10T06:50:34.484Z,64.29
2022-08-10T06:51:27.072Z,63.65
2022-08-10T06:52:26.054Z,62.51
2022-08-10T06:53:53.359Z,63.51
2022-08-10T06:54:27.738Z,62.33
2022-08-10T06:55:27.345Z,64.21
2022-08-10T06:56:38.134Z,65.62
2022-08-10T06:57:27.009Z,62.69
2022-08-10T06:58:26.864Z,64.58
2022-08-10T06:59:26.819Z,65.85
2022-08-10T07:00:32.427Z,66.69
2022-08-10T07:01:27.071Z,60.26
2022-08-10T07:02:25.985Z,62.45
2022-08-10T07:03:25.980Z,64.32
2022-08-10T07:04:32.501Z,62.45
2022-08-10T07:05:26.954Z,64.84
2022-08-10T07:06:25.943Z,63.18
2022-08-10T07:07:25.947Z,63.82
2022-08-10T07:08:25.935Z,64.23
2022-08-10T07:09:25.927Z,65.55
2022-08-10T07:10:26.269Z,64.46
2022-08-10T07:11:26.905Z,62.93
2022-08-10T07:12:25.915Z,63.84
2022-08-10T07:14:15.458Z,61.84
2022-08-10T07:14:26.880Z,63.86
2022-08-10T07:15:59.474Z,64.94
2022-08-10T07:16:26.873Z,63.08
2022-08-10T07:17:25.856Z,64.59
2022-08-10T07:18:25.849Z,65.38
2022-08-10T07:19:25.840Z,66.14
2022-08-10T07:20:25.859Z,64.48
2022-08-10T07:21:25.837Z,65.11
2022-08-10T07:23:27.033Z,63.36
2022-08-10T07:23:55.159Z,61.54
2022-08-10T07:24:26.800Z,62.70
2022-08-10T07:25:25.798Z,64.44
2022-08-10T07:26:25.786Z,65.27
2022-08-10T07:27:25.810Z,64.65
2022-08-10T07:28:26.778Z,64.23
2022-08-10T07:29:52.883Z,66.57
2022-08-10T07:30:27.750Z,70.59
2022-08-10T07:31:36.846Z,64.18
2022-08-10T07:32:26.867Z,64.14
2022-08-10T07:33:25.764Z,63.50
2022-08-10T07:34:29.195Z,67.20
2022-08-10T07:35:25.722Z,68.37
2022-08-10T07:36:25.726Z,68.63
2022-08-10T07:37:25.716Z,68.78
2022-08-10T07:38:25.725Z,64.94
2022-08-10T07:40:02.189Z,65.10
2022-08-10T07:40:26.810Z,63.76
2022-08-10T07:41:25.691Z,62.68
2022-08-10T07:42:25.668Z,64.03
2022-08-10T07:43:26.776Z,61.24
2022-08-10T07:44:25.647Z,60.20
2022-08-10T07:45:25.647Z,61.67
2022-08-10T07:46:25.646Z,61.76
2022-08-10T07:47:53.066Z,61.49
2022-08-10T07:48:27.644Z,61.52
2022-08-10T07:49:25.677Z,61.52
2022-08-10T07:50:25.622Z,63.21
2022-08-10T07:51:25.602Z,62.21
2022-08-10T07:52:25.599Z,62.20
2022-08-10T07:53:25.613Z,64.97
2022-08-10T07:54:25.574Z,63.16
2022-08-10T07:56:05.895Z,66.21
2022-08-10T07:56:47.868Z,67.84
2022-08-10T07:57:31.452Z,63.36
2022-08-10T07:58:26.572Z,60.76
2022-08-10T07:59:25.541Z,62.76
2022-08-10T08:00:25.525Z,65.27
2022-08-10T08:01:25.538Z,63.45
2022-08-10T08:02:25.516Z,64.15
2022-08-10T08:03:25.626Z,63.25
2022-08-10T08:04:25.503Z,62.16
2022-08-10T08:05:27.549Z,63.97
2022-08-10T08:06:26.495Z,64.52
2022-08-10T08:07:25.474Z,61.86
2022-08-10T08:08:25.472Z,72.85
2022-08-10T08:09:25.473Z,61.45
2022-08-10T08:10:25.451Z,62.70
2022-08-10T08:11:26.633Z,62.05
2022-08-10T08:12:25.444Z,61.49
2022-08-10T08:13:25.431Z,64.56
2022-08-10T08:14:25.434Z,60.59
2022-08-10T08:16:20.840Z,62.21
2022-08-10T08:16:26.424Z,60.93
2022-08-10T08:17:25.398Z,61.58
2022-08-10T08:18:26.395Z,63.85
2022-08-10T08:19:35.451Z,63.49
2022-08-10T08:20:27.374Z,66.44
2022-08-10T08:24:02.712Z,65.93
2022-08-10T08:24:05.538Z,64.17
2022-08-10T08:24:14.786Z,62.74
2022-08-10T08:24:32.587Z,62.91
2022-08-10T08:25:26.339Z,60.77
2022-08-10T08:26:25.323Z,63.12
2022-08-10T08:27:26.326Z,65.71
2022-08-10T08:28:25.304Z,62.52
2022-08-10T08:29:25.300Z,68.54
2022-08-10T08:30:27.840Z,67.13
2022-08-10T08:31:25.294Z,62.96
2022-08-10T08:32:25.265Z,62.82
2022-08-10T08:33:42.596Z,63.62
2022-08-10T08:34:26.262Z,62.54
2022-08-10T08:35:25.254Z,60.75
2022-08-10T08:36:25.254Z,62.91
2022-08-10T08:38:32.172Z,64.60
2022-08-10T08:38:33.280Z,63.31
2022-08-10T08:39:26.270Z,61.88
2022-08-10T08:40:25.214Z,61.92
2022-08-10T08:41:25.219Z,63.73
2022-08-10T08:42:25.201Z,62.58
2022-08-10T08:43:29.701Z,64.70
2022-08-10T08:44:29.560Z,65.84
2022-08-10T08:45:26.175Z,63.31
2022-08-10T08:46:25.171Z,60.81
2022-08-10T08:48:04.050Z,64.84
2022-08-10T08:48:26.147Z,63.60
2022-08-10T08:50:05.554Z,62.25
2022-08-10T08:50:26.139Z,66.54
2022-08-10T08:52:07.039Z,67.89
2022-08-10T08:52:26.128Z,66.15
2022-08-10T08:53:25.181Z,64.61
2022-08-10T08:54:26.104Z,63.88
2022-08-10T08:56:04.021Z,64.09
2022-08-10T08:56:26.088Z,63.12
2022-08-10T08:57:49.379Z,63.54
2022-08-10T08:58:26.079Z,63.26
2022-08-10T08:59:25.073Z,62.56
2022-08-10T09:00:25.057Z,64.53
2022-08-10T09:01:40.573Z,62.33
2022-08-10T09:02:26.041Z,65.38
2022-08-10T09:03:28.172Z,63.28
2022-08-10T09:04:26.024Z,62.26
2022-08-10T09:05:25.026Z,64.49
2022-08-10T09:06:25.023Z,64.75
2022-08-10T09:07:58.955Z,62.57
2022-08-10T09:08:25.995Z,63.03
2022-08-10T09:09:24.984Z,63.84
2022-08-10T09:10:24.983Z,62.08
2022-08-10T09:11:24.976Z,63.15
2022-08-10T09:12:24.963Z,62.61
2022-08-10T09:13:24.965Z,60.44
2022-08-10T09:14:25.893Z,61.40
2022-08-10T09:15:40.976Z,61.70
2022-08-10T09:16:25.933Z,65.23
2022-08-10T09:17:24.935Z,64.34
2022-08-10T09:18:24.913Z,63.29
2022-08-10T09:19:35.061Z,65.90
2022-08-10T09:20:25.910Z,68.17
2022-08-10T09:21:24.885Z,64.11
2022-08-10T09:22:25.879Z,64.11
2022-08-10T09:24:05.154Z,63.20
2022-08-10T09:24:25.874Z,64.33
2022-08-10T09:25:24.858Z,65.18
2022-08-10T09:26:24.847Z,66.77
2022-08-10T09:27:24.841Z,64.84
2022-08-10T09:28:26.634Z,63.28
2022-08-10T09:29:24.832Z,62.01
2022-08-10T09:30:28.401Z,66.24
2022-08-10T09:31:26.173Z,62.96
2022-08-10T09:36:15.818Z,62.97
2022-08-10T09:36:24.249Z,65.96
2022-08-10T09:36:24.604Z,64.32
2022-08-10T09:36:29.808Z,63.58
2022-08-10T09:36:32.620Z,63.14
2022-08-10T09:38:00.793Z,65.43
2022-08-10T09:38:25.775Z,63.41
2022-08-10T09:40:12.392Z,63.15
2022-08-10T09:41:00.641Z,66.05
2022-08-10T09:41:25.756Z,63.47
2022-08-10T09:42:24.745Z,63.89
2022-08-10T09:43:25.321Z,60.79
2022-08-10T09:44:25.758Z,61.43
2022-08-10T09:45:24.704Z,62.96
2022-08-10T09:46:27.566Z,60.27
2022-08-10T09:47:59.996Z,61.52
2022-08-10T09:48:25.685Z,69.80
2022-08-10T09:49:52.932Z,69.29
2022-08-10T09:50:26.674Z,67.72
2022-08-10T09:51:44.881Z,63.38
2022-08-10T09:52:26.670Z,67.43
2022-08-10T09:53:24.656Z,68.47
2022-08-10T09:54:24.648Z,69.24
2022-08-10T09:55:24.629Z,69.28
2022-08-10T09:56:28.669Z,68.18
2022-08-10T09:57:44.444Z,65.59
2022-08-10T09:58:26.597Z,68.69
2022-08-10T09:59:26.902Z,67.69
2022-08-10T10:00:25.585Z,66.56
2022-08-10T10:02:02.470Z,65.10
2022-08-10T10:02:25.577Z,64.20
2022-08-10T10:03:26.112Z,63.72
2022-08-10T10:04:25.575Z,62.89
2022-08-10T10:05:25.545Z,64.50
2022-08-10T10:06:24.533Z,63.06
2022-08-10T10:07:24.529Z,62.82
2022-08-10T10:08:24.525Z,62.49
2022-08-10T10:11:44.761Z,61.63
2022-08-10T10:12:44.754Z,62.56
2022-08-10T10:14:02.944Z,63.91
2022-08-10T10:14:45.961Z,62.52
2022-08-10T10:15:45.778Z,67.06
2022-08-10T10:18:52.180Z,63.84
2022-08-10T10:19:52.189Z,64.02
2022-08-10T10:20:52.174Z,63.69
2022-08-10T10:21:55.493Z,63.60
2022-08-10T10:22:53.250Z,62.90
2022-08-10T10:24:19.964Z,64.56
2022-08-10T10:24:55.226Z,60.59
2022-08-10T10:25:56.505Z,61.51
2022-08-10T10:26:54.225Z,62.55
2022-08-10T10:27:53.198Z,63.00
2022-08-10T10:29:58.001Z,63.59
2022-08-10T10:30:53.342Z,65.93
2022-08-10T10:31:53.192Z,63.17
2022-08-10T10:32:57.869Z,69.39
2022-08-10T10:33:55.153Z,64.03
2022-08-10T10:34:53.230Z,63.29
2022-08-10T10:35:54.015Z,64.31
2022-08-10T10:36:53.165Z,62.64
2022-08-10T10:38:01.382Z,62.74
2022-08-10T10:38:54.315Z,61.89
2022-08-10T10:39:54.244Z,63.70
2022-08-10T10:40:53.164Z,70.96
2022-08-10T10:42:03.449Z,67.32
2022-08-10T10:42:54.436Z,65.51
2022-08-10T10:43:53.098Z,61.99
2022-08-10T10:44:53.293Z,60.97
2022-08-10T10:45:53.270Z,64.42
2022-08-10T10:46:54.533Z,62.16
2022-08-10T10:47:54.234Z,62.32
2022-08-10T10:48:53.198Z,62.15
2022-08-10T10:49:53.062Z,61.75
2022-08-10T10:50:53.452Z,63.04
2022-08-10T10:51:55.519Z,65.21
2022-08-10T10:52:54.291Z,64.74
2022-08-10T10:53:52.996Z,62.76
2022-08-10T10:54:54.565Z,64.28
2022-08-10T10:56:14.754Z,62.26
2022-08-10T10:56:54.118Z,62.69
2022-08-10T10:58:00.401Z,62.92
2022-08-10T10:58:54.096Z,60.70
2022-08-10T10:59:55.714Z,64.74
2022-08-10T11:00:53.645Z,64.55
2022-08-10T11:01:52.990Z,63.06
2022-08-10T11:03:26.085Z,65.43
2022-08-10T11:03:52.912Z,68.51
2022-08-10T11:04:57.034Z,62.64
2022-08-10T11:05:53.896Z,62.79
2022-08-10T11:06:52.916Z,62.15
2022-08-10T11:07:53.362Z,60.19
2022-08-10T11:08:54.017Z,68.07
2022-08-10T11:10:09.205Z,67.02
2022-08-10T11:10:53.907Z,65.60
2022-08-10T11:12:01.646Z,60.09
2022-08-10T11:12:53.894Z,60.81
2022-08-10T11:14:25.578Z,63.32
2022-08-10T11:14:53.956Z,58.58
2022-08-10T11:15:52.830Z,60.77
2022-08-10T11:16:57.338Z,61.56
2022-08-10T11:17:54.836Z,61.69
2022-08-10T11:18:52.804Z,68.73
2022-08-10T11:20:00.130Z,64.22
2022-08-10T11:20:53.777Z,64.83
2022-08-10T11:21:52.787Z,66.05
2022-08-10T11:22:52.756Z,63.16
2022-08-10T11:24:44.491Z,62.08
2022-08-10T11:24:53.744Z,62.41
2022-08-10T11:25:52.734Z,62.58
2022-08-10T11:26:52.726Z,64.59
2022-08-10T11:27:52.713Z,65.12
2022-08-10T11:28:53.311Z,62.39
2022-08-10T11:29:52.704Z,64.21
2022-08-10T11:30:52.701Z,63.62
2022-08-10T11:31:52.700Z,61.87
2022-08-10T11:32:52.677Z,62.43
2022-08-10T11:35:11.256Z,61.42
2022-08-10T11:35:53.656Z,64.06
2022-08-10T11:36:52.659Z,66.15
2022-08-10T11:38:31.616Z,62.07
2022-08-10T11:39:13.525Z,61.11
2022-08-10T11:39:54.703Z,61.47
2022-08-10T11:40:52.628Z,61.35
2022-08-10T11:42:07.189Z,62.09
2022-08-10T11:42:53.597Z,61.29
2022-08-10T11:43:52.585Z,61.11
2022-08-10T11:44:52.583Z,61.31
2022-08-10T11:45:54.361Z,61.38
2022-08-10T11:46:52.568Z,62.95
2022-08-10T11:47:52.555Z,59.91
2022-08-10T11:48:57.003Z,60.18
2022-08-10T11:49:53.536Z,62.87
2022-08-10T11:50:52.535Z,61.41
2022-08-10T11:51:52.520Z,60.86
2022-08-10T11:52:52.530Z,62.22
2022-08-10T11:53:52.508Z,63.47
2022-08-10T11:54:52.501Z,64.81
2022-08-10T11:55:52.490Z,64.18
2022-08-10T11:56:52.485Z,64.41
2022-08-10T11:57:54.714Z,66.94
2022-08-10T11:58:52.472Z,62.28
2022-08-10T11:59:58.216Z,64.90
2022-08-10T12:00:53.448Z,64.81
2022-08-10T12:01:52.463Z,63.30
2022-08-10T12:02:53.277Z,65.31
2022-08-10T12:03:52.432Z,68.06
2022-08-10T12:04:52.419Z,64.14
2022-08-10T12:05:55.048Z,61.54
2022-08-10T12:06:55.724Z,64.77
2022-08-10T12:10:02.351Z,61.51
2022-08-10T12:10:06.567Z,62.55
2022-08-10T12:10:09.931Z,63.27
2022-08-10T12:10:53.374Z,62.33
2022-08-10T12:11:52.374Z,62.09
2022-08-10T12:12:52.365Z,62.44
2022-08-10T12:14:17.894Z,63.43
2022-08-10T12:14:54.343Z,62.95
2022-08-10T12:15:52.332Z,62.00
2022-08-10T12:16:52.331Z,63.20
2022-08-10T12:17:52.333Z,61.32
2022-08-10T12:18:52.307Z,63.90
2022-08-10T12:19:59.649Z,64.81
2022-08-10T12:20:53.305Z,66.42
2022-08-10T12:21:52.286Z,63.21
2022-08-10T12:22:52.286Z,62.05
2022-08-10T12:24:02.918Z,65.09
2022-08-10T12:24:53.266Z,62.98
2022-08-10T12:25:56.578Z,62.22
2022-08-10T12:26:53.245Z,62.51
2022-08-10T12:27:53.267Z,63.86
2022-08-10T12:28:52.324Z,66.31
2022-08-10T12:29:52.235Z,67.81
2022-08-10T12:30:52.229Z,66.08
2022-08-10T12:31:52.219Z,63.00
2022-08-10T12:32:52.204Z,63.28
2022-08-10T12:33:58.120Z,63.19
2022-08-10T12:34:53.209Z,63.36
2022-08-10T12:36:15.250Z,64.51
2022-08-10T12:36:54.170Z,62.94
2022-08-10T12:37:52.154Z,60.73
2022-08-10T12:38:52.158Z,64.55
2022-08-10T12:39:52.214Z,62.26
2022-08-10T12:40:52.144Z,63.01
2022-08-10T12:41:52.128Z,63.26
2022-08-10T12:43:13.043Z,63.78
2022-08-10T12:44:04.850Z,62.02
2022-08-10T12:44:53.113Z,61.68
2022-08-10T12:45:52.109Z,62.20
2022-08-10T12:46:52.088Z,62.20
2022-08-10T12:47:52.084Z,61.26
2022-08-10T12:48:52.084Z,63.38
2022-08-10T12:50:29.600Z,63.82
2022-08-10T12:50:53.079Z,64.25
2022-08-10T12:51:52.070Z,64.36
2022-08-10T12:52:52.064Z,64.58
2022-08-10T12:53:52.045Z,63.31
2022-08-10T12:54:52.037Z,63.37
2022-08-10T12:55:52.029Z,63.30
2022-08-10T12:56:52.021Z,65.16
2022-08-10T12:57:52.668Z,63.84
2022-08-10T12:58:59.691Z,63.19
2022-08-10T12:59:52.989Z,66.00
2022-08-10T13:01:14.609Z,66.06
2022-08-10T13:02:07.346Z,63.70
2022-08-10T13:02:53.003Z,65.84